createdAt,value
2023-01-26T00:00:16.101Z,1.11
2023-01-26T00:01:23.294Z,1.12
2023-01-26T00:02:26.457Z,1.11
2023-01-26T00:03:28.260Z,1.13
2023-01-26T00:04:30.175Z,1.13
2023-01-26T00:05:32.239Z,1.04
2023-01-26T00:06:34.162Z,1.14
2023-01-26T00:07:35.990Z,1.13
2023-01-26T00:08:39.033Z,1.12
2023-01-26T00:09:41.002Z,1.10
2023-01-26T00:10:50.386Z,1.10
2023-01-26T00:11:52.214Z,1.13
2023-01-26T00:12:54.050Z,1.14
2023-01-26T00:14:00.367Z,1.14
2023-01-26T00:15:02.062Z,1.13
2023-01-26T00:16:04.839Z,1.09
2023-01-26T00:17:06.634Z,1.07
2023-01-26T00:18:09.475Z,1.08
2023-01-26T00:19:15.172Z,1.09
2023-01-26T00:20:17.460Z,1.03
2023-01-26T00:21:21.936Z,1.02
2023-01-26T00:22:26.519Z,1.01
2023-01-26T00:23:30.631Z,1.00
2023-01-26T00:24:33.751Z,1.00
2023-01-26T00:25:40.270Z,1.01
2023-01-26T00:26:41.986Z,1.01
2023-01-26T00:27:44.580Z,1.03
2023-01-26T00:28:46.875Z,1.04
2023-01-26T00:29:50.155Z,1.07
2023-01-26T00:30:52.328Z,1.08
2023-01-26T00:31:54.281Z,1.10
2023-01-26T00:32:57.592Z,1.09
2023-01-26T00:34:00.125Z,1.11
2023-01-26T00:35:02.777Z,1.13
2023-01-26T00:36:05.082Z,1.12
2023-01-26T00:37:06.949Z,1.13
2023-01-26T00:38:09.787Z,1.18
2023-01-26T00:39:11.771Z,1.18
2023-01-26T00:40:13.654Z,1.18
2023-01-26T00:41:34.742Z,1.23
2023-01-26T00:42:36.913Z,1.25
2023-01-26T00:43:39.053Z,1.25
2023-01-26T00:44:42.703Z,1.28
2023-01-26T00:45:44.816Z,1.27
2023-01-26T00:46:47.875Z,1.26
2023-01-26T00:47:49.783Z,1.29
2023-01-26T00:48:52.169Z,1.30
2023-01-26T00:49:57.152Z,1.31
2023-01-26T00:50:58.849Z,1.21
2023-01-26T00:52:00.881Z,1.33
2023-01-26T00:53:02.700Z,1.37
2023-01-26T00:54:04.488Z,1.36
2023-01-26T00:55:06.974Z,1.36
2023-01-26T00:56:09.306Z,1.34
2023-01-26T00:57:11.025Z,1.39
2023-01-26T00:58:12.981Z,1.42
2023-01-26T00:59:14.596Z,1.42
2023-01-26T01:00:19.917Z,1.40
2023-01-26T01:01:22.183Z,1.42
2023-01-26T01:02:24.153Z,1.40
2023-01-26T01:03:26.821Z,1.35
2023-01-26T01:04:31.654Z,1.19
2023-01-26T01:05:34.517Z,1.28
2023-01-26T01:06:36.530Z,1.28
2023-01-26T01:07:38.253Z,1.28
2023-01-26T01:08:40.004Z,1.31
2023-01-26T01:09:41.893Z,1.33
2023-01-26T01:10:44.449Z,1.29
2023-01-26T01:11:46.135Z,1.32
2023-01-26T01:12:48.010Z,1.28
2023-01-26T01:13:49.733Z,1.27
2023-01-26T01:14:51.968Z,1.25
2023-01-26T01:15:53.926Z,1.26
2023-01-26T01:16:56.231Z,1.23
2023-01-26T01:17:59.335Z,1.20
2023-01-26T01:19:02.290Z,1.21
2023-01-26T01:20:09.534Z,1.23
2023-01-26T01:21:14.496Z,1.12
2023-01-26T01:22:16.508Z,1.13
2023-01-26T01:23:18.424Z,1.14
2023-01-26T01:24:20.547Z,1.13
2023-01-26T01:25:24.143Z,1.14
2023-01-26T01:26:27.780Z,1.13
2023-01-26T01:27:29.740Z,1.11
2023-01-26T01:28:33.762Z,1.13
2023-01-26T01:29:35.813Z,1.15
2023-01-26T01:30:38.480Z,1.16
2023-01-26T01:31:42.253Z,1.19
2023-01-26T01:32:45.010Z,1.21
2023-01-26T01:33:47.415Z,0.80
2023-01-26T01:34:49.572Z,1.11
2023-01-26T01:36:04.418Z,1.12
2023-01-26T01:37:06.719Z,1.09
2023-01-26T01:38:08.812Z,1.06
2023-01-26T01:39:11.111Z,0.74
2023-01-26T01:40:13.737Z,1.07
2023-01-26T01:41:20.129Z,0.95
2023-01-26T01:42:23.863Z,0.68
2023-01-26T01:43:27.249Z,1.10
2023-01-26T01:44:30.204Z,1.13
2023-01-26T01:45:46.310Z,1.14
2023-01-26T01:46:56.707Z,1.13
2023-01-26T01:48:03.964Z,1.11
2023-01-26T01:49:14.566Z,1.08
2023-01-26T01:50:18.241Z,1.09
2023-01-26T01:52:04.293Z,1.14
2023-01-26T01:53:11.964Z,1.13
2023-01-26T01:54:18.404Z,1.17
2023-01-26T01:55:20.765Z,1.18
2023-01-26T01:56:27.272Z,1.20
2023-01-26T01:57:45.244Z,1.19
2023-01-26T01:58:53.587Z,1.20
2023-01-26T02:00:10.012Z,1.19
2023-01-26T02:01:12.888Z,1.21
2023-01-26T02:02:16.157Z,0.86
2023-01-26T02:03:21.483Z,1.23
2023-01-26T02:04:25.031Z,1.25
2023-01-26T02:05:32.925Z,1.21
2023-01-26T02:06:53.397Z,1.23
2023-01-26T02:07:55.936Z,1.24
2023-01-26T02:08:59.655Z,1.29
2023-01-26T02:10:18.764Z,1.26
2023-01-26T02:11:32.551Z,1.26
2023-01-26T02:12:37.173Z,1.25
2023-01-26T02:13:41.797Z,1.24
2023-01-26T02:14:45.189Z,1.25
2023-01-26T02:15:47.425Z,1.26
2023-01-26T02:16:49.390Z,1.29
2023-01-26T02:17:53.056Z,1.27
2023-01-26T02:18:55.953Z,1.26
2023-01-26T02:20:04.610Z,1.26
2023-01-26T02:21:09.142Z,1.21
2023-01-26T02:22:28.024Z,1.14
2023-01-26T02:23:32.920Z,1.21
2023-01-26T02:24:38.990Z,1.22
2023-01-26T02:25:54.334Z,1.25
2023-01-26T02:26:57.241Z,1.12
2023-01-26T02:27:59.745Z,1.14
2023-01-26T02:29:08.150Z,1.26
2023-01-26T02:30:12.480Z,1.24
2023-01-26T02:31:14.880Z,1.23
2023-01-26T02:32:16.946Z,1.24
2023-01-26T02:33:24.812Z,1.24
2023-01-26T02:34:28.955Z,1.21
2023-01-26T02:35:30.927Z,1.22
2023-01-26T02:36:34.674Z,1.22
2023-01-26T02:37:36.826Z,1.22
2023-01-26T02:38:44.695Z,1.23
2023-01-26T02:39:55.470Z,1.24
2023-01-26T02:41:04.760Z,1.20
2023-01-26T02:42:25.994Z,1.21
2023-01-26T02:43:28.964Z,1.21
2023-01-26T02:44:32.878Z,1.23
2023-01-26T02:45:34.897Z,1.20
2023-01-26T02:46:36.921Z,1.13
2023-01-26T02:47:40.590Z,1.17
2023-01-26T02:49:01.341Z,1.18
2023-01-26T02:50:03.845Z,1.04
2023-01-26T02:51:06.359Z,1.15
2023-01-26T02:52:09.351Z,1.14
2023-01-26T02:53:11.474Z,1.14
2023-01-26T02:54:33.535Z,1.16
2023-01-26T02:55:35.597Z,1.16
2023-01-26T02:56:40.857Z,0.78
2023-01-26T02:57:43.030Z,1.06
2023-01-26T02:58:44.702Z,1.11
2023-01-26T02:59:46.907Z,1.15
2023-01-26T03:00:48.981Z,1.14
2023-01-26T03:01:53.596Z,1.15
2023-01-26T03:02:58.819Z,1.12
2023-01-26T03:04:00.736Z,1.06
2023-01-26T03:05:04.720Z,1.07
2023-01-26T03:06:06.677Z,1.06
2023-01-26T03:07:08.859Z,1.08
2023-01-26T03:08:10.691Z,1.09
2023-01-26T03:09:12.660Z,1.08
2023-01-26T03:10:16.987Z,1.09
2023-01-26T03:11:18.873Z,1.09
2023-01-26T03:12:20.833Z,1.09
2023-01-26T03:13:22.723Z,1.10
2023-01-26T03:14:24.975Z,1.08
2023-01-26T03:15:43.558Z,1.09
2023-01-26T03:16:45.456Z,1.05
2023-01-26T03:17:47.210Z,1.07
2023-01-26T03:19:04.777Z,1.07
2023-01-26T03:20:26.330Z,1.07
2023-01-26T03:21:46.747Z,1.08
2023-01-26T03:23:07.360Z,1.07
2023-01-26T03:24:32.353Z,1.05
2023-01-26T03:25:55.796Z,1.07
2023-01-26T03:27:16.617Z,1.09
2023-01-26T03:28:22.519Z,1.09
2023-01-26T03:29:29.129Z,1.11
2023-01-26T03:30:31.035Z,1.08
2023-01-26T03:31:33.012Z,1.04
2023-01-26T03:32:34.852Z,1.03
2023-01-26T03:33:36.744Z,1.01
2023-01-26T03:34:38.927Z,1.01
2023-01-26T03:35:40.749Z,0.98
2023-01-26T03:36:43.412Z,1.00
2023-01-26T03:37:45.302Z,0.98
2023-01-26T03:38:47.426Z,0.98
2023-01-26T03:40:11.518Z,0.98
2023-01-26T03:41:32.539Z,0.68
2023-01-26T03:42:54.216Z,1.00
2023-01-26T03:44:14.666Z,0.94
2023-01-26T03:45:35.628Z,0.92
2023-01-26T03:46:56.828Z,0.92
2023-01-26T03:48:30.871Z,0.90
2023-01-26T03:49:51.515Z,0.91
2023-01-26T03:51:12.112Z,0.93
2023-01-26T03:52:32.399Z,0.95
2023-01-26T03:53:53.413Z,0.98
2023-01-26T03:55:13.880Z,0.95
2023-01-26T03:56:20.443Z,0.92
2023-01-26T03:57:22.390Z,0.93
2023-01-26T03:58:24.579Z,0.93
2023-01-26T03:59:39.416Z,0.88
2023-01-26T04:00:41.606Z,0.91
2023-01-26T04:02:05.968Z,0.93
2023-01-26T04:03:27.077Z,0.96
2023-01-26T04:04:47.882Z,0.93
2023-01-26T04:06:16.159Z,0.92
2023-01-26T04:07:38.233Z,0.93
2023-01-26T04:08:39.950Z,0.94
2023-01-26T04:09:41.944Z,0.92
2023-01-26T04:10:43.754Z,0.90
2023-01-26T04:11:46.552Z,0.85
2023-01-26T04:13:07.620Z,0.80
2023-01-26T04:14:32.309Z,0.80
2023-01-26T04:15:58.775Z,0.74
2023-01-26T04:17:21.719Z,0.74
2023-01-26T04:18:42.419Z,0.75
2023-01-26T04:20:02.885Z,0.75
2023-01-26T04:21:24.362Z,0.76
2023-01-26T04:22:26.876Z,0.76
2023-01-26T04:23:29.020Z,0.74
2023-01-26T04:24:30.819Z,0.74
2023-01-26T04:25:32.616Z,0.73
2023-01-26T04:26:37.788Z,0.68
2023-01-26T04:27:41.138Z,0.66
2023-01-26T04:28:42.863Z,0.63
2023-01-26T04:29:44.989Z,0.63
2023-01-26T04:30:47.149Z,0.61
2023-01-26T04:31:49.300Z,0.59
2023-01-26T04:32:51.635Z,0.54
2023-01-26T04:33:54.715Z,0.39
2023-01-26T04:34:56.637Z,0.48
2023-01-26T04:36:06.881Z,0.49
2023-01-26T04:37:10.376Z,0.47
2023-01-26T04:38:12.232Z,0.43
2023-01-26T04:39:14.428Z,0.40
2023-01-26T04:40:16.593Z,0.43
2023-01-26T04:41:18.620Z,0.45
2023-01-26T04:42:21.135Z,0.45
2023-01-26T04:43:22.911Z,0.49
2023-01-26T04:44:25.376Z,0.51
2023-01-26T04:45:27.299Z,0.52
2023-01-26T04:46:29.227Z,0.52
2023-01-26T04:47:31.557Z,0.53
2023-01-26T04:48:34.379Z,0.51
2023-01-26T04:49:36.066Z,0.49
2023-01-26T04:50:38.310Z,0.44
2023-01-26T04:51:40.713Z,0.40
2023-01-26T04:52:42.749Z,0.39
2023-01-26T04:53:44.776Z,0.30
2023-01-26T04:54:46.564Z,0.41
2023-01-26T04:55:48.900Z,0.43
2023-01-26T04:56:51.739Z,0.44
2023-01-26T04:57:53.534Z,0.45
2023-01-26T04:58:56.579Z,0.45
2023-01-26T04:59:58.969Z,0.47
2023-01-26T05:01:01.049Z,0.48
2023-01-26T05:02:03.457Z,0.42
2023-01-26T05:03:05.208Z,0.48
2023-01-26T05:04:07.702Z,0.44
2023-01-26T05:05:10.267Z,0.43
2023-01-26T05:06:12.826Z,0.41
2023-01-26T05:07:14.852Z,0.42
2023-01-26T05:08:17.823Z,0.41
2023-01-26T05:09:19.773Z,0.28
2023-01-26T05:10:21.848Z,0.36
2023-01-26T05:11:24.284Z,0.37
2023-01-26T05:12:35.456Z,0.35
2023-01-26T05:13:37.627Z,0.32
2023-01-26T05:14:39.398Z,0.33
2023-01-26T05:15:41.415Z,0.32
2023-01-26T05:16:43.234Z,0.33
2023-01-26T05:17:45.160Z,0.33
2023-01-26T05:18:47.260Z,0.34
2023-01-26T05:19:48.894Z,0.35
2023-01-26T05:20:50.752Z,0.35
2023-01-26T05:21:52.821Z,0.35
2023-01-26T05:22:54.815Z,0.36
2023-01-26T05:23:57.469Z,0.36
2023-01-26T05:24:59.652Z,0.35
2023-01-26T05:26:01.684Z,0.33
2023-01-26T05:27:21.712Z,0.33
2023-01-26T05:28:23.840Z,0.32
2023-01-26T05:29:25.720Z,0.34
2023-01-26T05:30:27.952Z,0.35
2023-01-26T05:31:29.785Z,0.36
2023-01-26T05:32:31.845Z,0.34
2023-01-26T05:33:33.689Z,0.36
2023-01-26T05:34:35.441Z,0.35
2023-01-26T05:35:37.328Z,0.34
2023-01-26T05:36:39.134Z,0.35
2023-01-26T05:37:42.674Z,0.37
2023-01-26T05:38:44.799Z,0.34
2023-01-26T05:39:46.927Z,0.36
2023-01-26T05:40:49.200Z,0.38
2023-01-26T05:41:51.237Z,0.40
2023-01-26T05:42:54.085Z,0.41
2023-01-26T05:43:56.378Z,0.41
2023-01-26T05:44:58.127Z,0.42
2023-01-26T05:46:00.169Z,0.42
2023-01-26T05:47:02.139Z,0.44
2023-01-26T05:48:04.273Z,0.43
2023-01-26T05:49:06.147Z,0.46
2023-01-26T05:50:08.394Z,0.45
2023-01-26T05:51:10.164Z,0.44
2023-01-26T05:52:15.459Z,0.46
2023-01-26T05:53:17.289Z,0.36
2023-01-26T05:54:19.405Z,0.37
2023-01-26T05:55:21.296Z,0.37
2023-01-26T05:56:24.833Z,0.39
2023-01-26T05:57:26.762Z,0.37
2023-01-26T05:58:29.972Z,0.39
2023-01-26T05:59:34.893Z,0.39
2023-01-26T06:00:36.855Z,0.35
2023-01-26T06:01:39.909Z,0.28
2023-01-26T06:02:42.409Z,0.35
2023-01-26T06:03:44.484Z,0.33
2023-01-26T06:04:46.649Z,0.35
2023-01-26T06:05:54.372Z,0.36
2023-01-26T06:06:58.069Z,0.36
2023-01-26T06:08:00.693Z,0.35
2023-01-26T06:09:02.578Z,0.37
2023-01-26T06:10:06.103Z,-0.02
2023-01-26T06:11:08.126Z,0.37
2023-01-26T06:12:17.662Z,0.39
2023-01-26T06:13:19.983Z,0.39
2023-01-26T06:14:21.753Z,0.40
2023-01-26T06:15:23.538Z,0.41
2023-01-26T06:16:25.833Z,0.41
2023-01-26T06:17:27.983Z,0.36
2023-01-26T06:18:29.850Z,0.04
2023-01-26T06:19:31.680Z,0.40
2023-01-26T06:20:33.330Z,0.40
2023-01-26T06:21:35.291Z,0.39
2023-01-26T06:22:36.935Z,0.41
2023-01-26T06:23:38.962Z,0.42
2023-01-26T06:24:40.884Z,0.25
2023-01-26T06:25:43.216Z,0.41
2023-01-26T06:26:46.984Z,0.41
2023-01-26T06:27:52.297Z,0.35
2023-01-26T06:28:54.921Z,0.37
2023-01-26T06:29:57.419Z,0.39
2023-01-26T06:31:01.224Z,0.39
2023-01-26T06:32:03.058Z,0.37
2023-01-26T06:33:07.128Z,0.39
2023-01-26T06:34:09.015Z,0.37
2023-01-26T06:35:11.171Z,0.40
2023-01-26T06:36:14.997Z,0.40
2023-01-26T06:37:16.955Z,0.41
2023-01-26T06:38:20.460Z,0.40
2023-01-26T06:39:22.207Z,0.39
2023-01-26T06:40:24.165Z,0.39
2023-01-26T06:41:26.485Z,0.37
2023-01-26T06:42:28.179Z,0.35
2023-01-26T06:43:31.345Z,0.28
2023-01-26T06:44:33.053Z,0.30
2023-01-26T06:45:34.797Z,0.39
2023-01-26T06:46:36.769Z,0.39
2023-01-26T06:47:38.777Z,0.40
2023-01-26T06:48:41.060Z,0.39
2023-01-26T06:49:43.168Z,0.40
2023-01-26T06:50:45.877Z,0.30
2023-01-26T06:52:03.200Z,0.42
2023-01-26T06:53:25.628Z,0.42
2023-01-26T06:54:27.486Z,0.45
2023-01-26T06:55:38.843Z,0.46
2023-01-26T06:56:40.898Z,0.46
2023-01-26T06:57:43.620Z,0.44
2023-01-26T06:58:45.305Z,0.45
2023-01-26T06:59:46.965Z,0.45
2023-01-26T07:00:49.039Z,0.46
2023-01-26T07:01:51.320Z,0.44
2023-01-26T07:02:53.613Z,0.49
2023-01-26T07:03:56.025Z,0.48
2023-01-26T07:04:58.000Z,0.50
2023-01-26T07:05:59.711Z,0.50
2023-01-26T07:07:01.560Z,0.53
2023-01-26T07:08:04.385Z,0.53
2023-01-26T07:09:06.366Z,0.50
2023-01-26T07:10:09.083Z,0.52
2023-01-26T07:11:12.656Z,0.58
2023-01-26T07:12:14.415Z,0.58
2023-01-26T07:13:16.466Z,0.61
2023-01-26T07:14:18.568Z,0.63
2023-01-26T07:15:20.231Z,0.66
2023-01-26T07:16:22.067Z,0.68
2023-01-26T07:17:23.814Z,0.69
2023-01-26T07:18:25.558Z,0.67
2023-01-26T07:19:27.400Z,0.66
2023-01-26T07:20:30.358Z,0.66
2023-01-26T07:21:32.279Z,0.67
2023-01-26T07:22:34.304Z,0.68
2023-01-26T07:23:36.154Z,0.71
2023-01-26T07:24:37.868Z,0.74
2023-01-26T07:25:43.383Z,0.77
2023-01-26T07:26:45.085Z,0.78
2023-01-26T07:27:46.768Z,0.79
2023-01-26T07:28:48.701Z,0.84
2023-01-26T07:29:51.496Z,0.85
2023-01-26T07:30:57.425Z,0.69
2023-01-26T07:31:59.572Z,0.88
2023-01-26T07:33:01.960Z,0.89
2023-01-26T07:34:03.929Z,0.86
2023-01-26T07:35:09.010Z,0.84
2023-01-26T07:36:11.343Z,0.81
2023-01-26T07:37:13.184Z,0.75
2023-01-26T07:38:14.945Z,0.73
2023-01-26T07:39:16.859Z,0.69
2023-01-26T07:40:18.795Z,0.69
2023-01-26T07:41:20.731Z,0.67
2023-01-26T07:42:22.654Z,0.69
2023-01-26T07:43:24.653Z,0.67
2023-01-26T07:44:26.832Z,0.68
2023-01-26T07:45:28.500Z,0.73
2023-01-26T07:46:30.358Z,0.58
2023-01-26T07:47:32.044Z,0.78
2023-01-26T07:48:34.513Z,0.40
2023-01-26T07:49:36.901Z,0.82
2023-01-26T07:50:38.812Z,0.91
2023-01-26T07:51:41.067Z,0.91
2023-01-26T07:52:43.844Z,0.92
2023-01-26T07:53:49.829Z,0.92
2023-01-26T07:54:51.666Z,0.91
2023-01-26T07:55:53.478Z,0.93
2023-01-26T07:56:57.974Z,0.91
2023-01-26T07:57:59.679Z,0.88
2023-01-26T07:59:03.755Z,0.86
2023-01-26T08:00:06.789Z,0.82
2023-01-26T08:01:14.253Z,0.79
2023-01-26T08:02:16.024Z,0.59
2023-01-26T08:03:17.776Z,0.75
2023-01-26T08:04:19.641Z,0.73
2023-01-26T08:05:21.516Z,0.74
2023-01-26T08:06:23.342Z,0.69
2023-01-26T08:07:25.402Z,0.68
2023-01-26T08:08:28.791Z,0.69
2023-01-26T08:09:30.646Z,0.68
2023-01-26T08:10:32.602Z,0.66
2023-01-26T08:11:35.330Z,0.61
2023-01-26T08:12:40.863Z,0.58
2023-01-26T08:13:42.740Z,0.69
2023-01-26T08:14:47.024Z,0.70
2023-01-26T08:15:49.112Z,0.68
2023-01-26T08:16:50.744Z,0.72
2023-01-26T08:17:54.605Z,0.69
2023-01-26T08:18:56.497Z,0.74
2023-01-26T08:19:58.298Z,0.75
2023-01-26T08:21:00.713Z,0.77
2023-01-26T08:22:04.142Z,0.79
2023-01-26T08:23:09.178Z,0.82
2023-01-26T08:24:14.265Z,0.85
2023-01-26T08:25:16.607Z,0.73
2023-01-26T08:26:19.986Z,0.89
2023-01-26T08:27:23.158Z,0.92
2023-01-26T08:28:25.606Z,0.94
2023-01-26T08:29:27.484Z,0.94
2023-01-26T08:30:29.225Z,0.94
2023-01-26T08:31:31.188Z,0.93
2023-01-26T08:32:32.981Z,0.98
2023-01-26T08:33:35.433Z,0.94
2023-01-26T08:34:37.083Z,1.01
2023-01-26T08:35:39.624Z,1.03
2023-01-26T08:36:41.401Z,1.06
2023-01-26T08:37:43.537Z,1.09
2023-01-26T08:38:45.423Z,1.11
2023-01-26T08:39:47.109Z,1.11
2023-01-26T08:40:52.064Z,1.10
2023-01-26T08:41:54.663Z,1.12
2023-01-26T08:42:59.322Z,1.11
2023-01-26T08:44:01.494Z,1.15
2023-01-26T08:45:03.457Z,1.07
2023-01-26T08:46:05.634Z,1.19
2023-01-26T08:47:07.615Z,1.20
2023-01-26T08:48:09.371Z,1.22
2023-01-26T08:49:11.200Z,1.24
2023-01-26T08:50:13.205Z,1.26
2023-01-26T08:51:15.395Z,1.27
2023-01-26T08:52:17.051Z,1.26
2023-01-26T08:53:18.787Z,1.28
2023-01-26T08:54:20.673Z,1.29
2023-01-26T08:55:22.468Z,1.27
2023-01-26T08:56:24.987Z,1.28
2023-01-26T08:57:27.324Z,1.31
2023-01-26T08:58:29.873Z,1.29
2023-01-26T08:59:31.960Z,1.34
2023-01-26T09:00:34.269Z,1.29
2023-01-26T09:01:35.967Z,1.37
2023-01-26T09:02:37.876Z,1.35
2023-01-26T09:03:40.282Z,1.32
2023-01-26T09:04:41.978Z,1.30
2023-01-26T09:05:43.761Z,1.28
2023-01-26T09:06:45.650Z,1.28
2023-01-26T09:07:47.380Z,1.28
2023-01-26T09:08:49.440Z,1.29
2023-01-26T09:09:51.259Z,1.30
2023-01-26T09:10:52.986Z,1.36
2023-01-26T09:11:57.855Z,1.38
2023-01-26T09:13:01.733Z,1.37
2023-01-26T09:14:03.779Z,1.36
2023-01-26T09:15:06.684Z,1.38
2023-01-26T09:16:15.609Z,1.41
2023-01-26T09:17:20.428Z,1.45
2023-01-26T09:18:22.112Z,1.45
2023-01-26T09:19:24.150Z,1.46
2023-01-26T09:20:26.481Z,1.46
2023-01-26T09:21:28.365Z,1.49
2023-01-26T09:22:30.746Z,1.49
2023-01-26T09:23:34.427Z,1.50
2023-01-26T09:24:36.225Z,1.50
2023-01-26T09:25:38.777Z,1.47
2023-01-26T09:26:40.519Z,1.49
2023-01-26T09:27:43.999Z,1.51
2023-01-26T09:28:50.355Z,1.50
2023-01-26T09:29:52.765Z,1.51
2023-01-26T09:30:54.767Z,1.53
2023-01-26T09:31:57.564Z,1.46
2023-01-26T09:33:00.753Z,1.53
2023-01-26T09:34:02.842Z,1.54
2023-01-26T09:35:05.210Z,1.56
2023-01-26T09:36:11.307Z,1.55
2023-01-26T09:37:13.272Z,1.55
2023-01-26T09:38:15.122Z,1.56
2023-01-26T09:39:17.149Z,1.45
2023-01-26T09:40:42.081Z,1.59
2023-01-26T09:41:55.604Z,1.61
2023-01-26T09:43:29.401Z,1.61
2023-01-26T09:44:40.633Z,1.60
2023-01-26T09:45:59.103Z,1.56
2023-01-26T09:47:24.569Z,1.55
2023-01-26T09:48:51.825Z,1.57
2023-01-26T09:50:08.790Z,1.58
2023-01-26T09:51:38.481Z,1.60
2023-01-26T09:52:48.242Z,1.59
2023-01-26T09:54:02.179Z,1.57
2023-01-26T09:55:15.525Z,1.61
2023-01-26T09:56:20.227Z,1.59
2023-01-26T09:57:44.552Z,1.60
2023-01-26T09:58:52.686Z,1.57
2023-01-26T10:00:10.072Z,1.13
2023-01-26T10:01:36.377Z,1.50
2023-01-26T10:03:15.674Z,1.47
2023-01-26T10:04:36.886Z,1.47
2023-01-26T10:05:51.550Z,1.46
2023-01-26T10:06:56.729Z,1.37
2023-01-26T10:07:58.522Z,1.48
2023-01-26T10:09:17.078Z,1.47
2023-01-26T10:10:32.531Z,1.49
2023-01-26T10:11:48.593Z,1.51
2023-01-26T10:12:54.144Z,1.53
2023-01-26T10:14:05.309Z,1.49
2023-01-26T10:15:27.697Z,1.58
2023-01-26T10:16:29.994Z,1.59
2023-01-26T10:17:44.294Z,1.57
2023-01-26T10:18:57.647Z,1.57
2023-01-26T10:20:17.941Z,1.63
2023-01-26T10:21:23.790Z,1.63
2023-01-26T10:22:44.297Z,1.59
2023-01-26T10:23:49.489Z,1.54
2023-01-26T10:24:52.703Z,1.56
2023-01-26T10:26:00.100Z,1.57
2023-01-26T10:27:11.115Z,1.59
2023-01-26T10:28:24.764Z,1.57
2023-01-26T10:29:26.787Z,1.57
2023-01-26T10:30:28.809Z,1.61
2023-01-26T10:31:33.160Z,1.45
2023-01-26T10:32:42.640Z,1.63
2023-01-26T10:34:14.728Z,1.59
2023-01-26T10:35:21.468Z,1.52
2023-01-26T10:36:23.783Z,1.55
2023-01-26T10:37:29.991Z,1.55
2023-01-26T10:38:34.624Z,1.53
2023-01-26T10:39:37.949Z,1.52
2023-01-26T10:40:45.594Z,1.52
2023-01-26T10:42:02.262Z,1.50
2023-01-26T10:43:04.148Z,1.43
2023-01-26T10:44:32.971Z,1.43
2023-01-26T10:45:47.022Z,1.34
2023-01-26T10:47:03.780Z,1.50
2023-01-26T10:48:17.968Z,1.49
2023-01-26T10:49:20.224Z,1.50
2023-01-26T10:50:25.323Z,1.54
2023-01-26T10:51:31.350Z,1.55
2023-01-26T10:52:33.134Z,1.55
2023-01-26T10:53:34.902Z,1.31
2023-01-26T10:54:38.208Z,1.54
2023-01-26T10:55:41.092Z,1.51
2023-01-26T10:56:57.553Z,1.47
2023-01-26T10:58:00.292Z,1.46
2023-01-26T10:59:03.189Z,1.52
2023-01-26T11:00:20.145Z,1.53
2023-01-26T11:01:27.352Z,1.53
2023-01-26T11:02:31.642Z,1.54
2023-01-26T11:03:33.585Z,1.54
2023-01-26T11:04:35.413Z,1.55
2023-01-26T11:05:37.303Z,1.59
2023-01-26T11:06:41.384Z,1.53
2023-01-26T11:07:46.331Z,1.58
2023-01-26T11:08:48.125Z,1.53
2023-01-26T11:09:53.405Z,1.55
2023-01-26T11:10:57.412Z,1.55
2023-01-26T11:12:01.955Z,1.56
2023-01-26T11:13:08.794Z,1.58
2023-01-26T11:14:18.754Z,1.56
2023-01-26T11:15:23.707Z,1.62
2023-01-26T11:16:27.756Z,1.66
2023-01-26T11:17:43.237Z,1.69
2023-01-26T11:19:12.982Z,1.42
2023-01-26T11:20:56.855Z,1.64
2023-01-26T11:22:13.329Z,1.66
2023-01-26T11:23:36.837Z,1.70
2023-01-26T11:24:52.607Z,1.70
2023-01-26T11:26:23.646Z,1.75
2023-01-26T11:27:34.821Z,1.72
2023-01-26T11:28:45.751Z,1.65
2023-01-26T11:30:20.512Z,1.58
2023-01-26T11:31:22.746Z,1.59
2023-01-26T11:32:30.532Z,1.60
2023-01-26T11:33:46.252Z,1.58
2023-01-26T11:34:53.905Z,1.64
2023-01-26T11:36:21.639Z,1.67
2023-01-26T11:37:57.821Z,1.68
2023-01-26T11:39:17.050Z,1.52
2023-01-26T11:40:32.225Z,1.70
2023-01-26T11:42:03.021Z,1.70
2023-01-26T11:43:23.137Z,1.69
2023-01-26T11:44:30.751Z,1.66
2023-01-26T11:45:47.809Z,1.67
2023-01-26T11:47:13.877Z,1.63
2023-01-26T11:48:24.463Z,1.57
2023-01-26T11:49:57.156Z,1.68
2023-01-26T11:51:14.689Z,1.63
2023-01-26T11:52:42.859Z,1.64
2023-01-26T11:54:03.665Z,1.63
2023-01-26T11:55:15.662Z,1.68
2023-01-26T11:56:55.137Z,1.66
2023-01-26T11:58:27.874Z,1.70
2023-01-26T11:59:48.625Z,1.72
2023-01-26T12:00:56.636Z,1.71
2023-01-26T12:02:18.790Z,1.75
2023-01-26T12:03:41.642Z,1.71
2023-01-26T12:04:45.784Z,1.74
2023-01-26T12:05:52.652Z,1.76
2023-01-26T12:07:26.160Z,1.72
2023-01-26T12:08:41.880Z,1.71
2023-01-26T12:09:47.157Z,1.69
2023-01-26T12:10:59.170Z,1.73
2023-01-26T12:12:09.026Z,1.70
2023-01-26T12:13:24.480Z,1.74
2023-01-26T12:15:06.038Z,1.75
2023-01-26T12:16:20.722Z,1.76
2023-01-26T12:17:47.332Z,1.74
2023-01-26T12:19:11.234Z,1.65
2023-01-26T12:20:50.286Z,1.64
2023-01-26T12:21:57.455Z,1.59
2023-01-26T12:23:09.572Z,1.61
2023-01-26T12:24:54.286Z,1.65
2023-01-26T12:25:53.146Z,1.65
2023-01-26T12:26:55.229Z,1.65
2023-01-26T12:28:26.585Z,1.63
2023-01-26T12:29:44.916Z,1.61
2023-01-26T12:30:59.492Z,1.67
2023-01-26T12:32:10.205Z,1.66
2023-01-26T12:33:12.215Z,1.60
2023-01-26T12:34:14.425Z,1.60
2023-01-26T12:35:44.496Z,1.58
2023-01-26T12:36:52.063Z,1.58
2023-01-26T12:38:17.290Z,1.56
2023-01-26T12:39:26.675Z,1.56
2023-01-26T12:40:52.276Z,1.61
2023-01-26T12:42:17.453Z,1.61
2023-01-26T12:43:19.136Z,1.58
2023-01-26T12:44:36.005Z,1.49
2023-01-26T12:45:41.743Z,1.50
2023-01-26T12:46:50.420Z,1.54
2023-01-26T12:48:10.207Z,1.53
2023-01-26T12:49:41.144Z,1.56
2023-01-26T12:50:49.188Z,1.17
2023-01-26T12:52:02.549Z,1.56
2023-01-26T12:53:32.518Z,1.61
2023-01-26T12:55:01.342Z,1.63
2023-01-26T12:56:15.259Z,1.66
2023-01-26T12:57:21.877Z,1.58
2023-01-26T12:58:25.328Z,1.66
2023-01-26T12:59:46.670Z,1.65
2023-01-26T13:01:00.164Z,1.66
2023-01-26T13:02:24.330Z,1.65
2023-01-26T13:03:35.546Z,1.65
2023-01-26T13:04:37.800Z,1.65
2023-01-26T13:05:56.176Z,1.61
2023-01-26T13:07:24.684Z,1.58
2023-01-26T13:08:33.112Z,1.58
2023-01-26T13:09:35.023Z,1.57
2023-01-26T13:10:50.143Z,1.62
2023-01-26T13:11:59.922Z,1.58
2023-01-26T13:13:21.663Z,1.59
2023-01-26T13:14:43.719Z,1.59
2023-01-26T13:15:45.505Z,1.53
2023-01-26T13:16:47.223Z,1.52
2023-01-26T13:18:02.530Z,1.52
2023-01-26T13:19:04.919Z,1.53
2023-01-26T13:20:23.692Z,1.50
2023-01-26T13:21:37.847Z,1.49
2023-01-26T13:22:41.811Z,1.46
2023-01-26T13:23:44.212Z,1.39
2023-01-26T13:24:48.759Z,1.37
2023-01-26T13:26:18.145Z,1.35
2023-01-26T13:27:40.797Z,1.38
2023-01-26T13:28:43.762Z,1.42
2023-01-26T13:29:56.209Z,1.42
2023-01-26T13:31:06.860Z,1.42
2023-01-26T13:32:08.968Z,1.42
2023-01-26T13:33:24.702Z,1.42
2023-01-26T13:34:35.137Z,1.40
2023-01-26T13:35:37.637Z,1.34
2023-01-26T13:36:43.605Z,1.27
2023-01-26T13:37:57.826Z,1.25
2023-01-26T13:39:25.431Z,1.23
2023-01-26T13:40:35.794Z,1.26
2023-01-26T13:41:48.446Z,1.26
2023-01-26T13:43:25.836Z,1.26
2023-01-26T13:44:38.613Z,1.20
2023-01-26T13:46:02.635Z,1.20
2023-01-26T13:47:20.941Z,1.19
2023-01-26T13:48:35.085Z,1.03
2023-01-26T13:49:39.295Z,1.07
2023-01-26T13:50:41.512Z,1.06
2023-01-26T13:51:43.773Z,1.07
2023-01-26T13:52:45.484Z,1.08
2023-01-26T13:54:07.860Z,1.08
2023-01-26T13:55:22.226Z,1.10
2023-01-26T13:56:26.879Z,1.13
2023-01-26T13:57:30.556Z,1.11
2023-01-26T13:58:33.267Z,1.16
2023-01-26T13:59:48.669Z,1.12
2023-01-26T14:01:19.988Z,1.10
2023-01-26T14:02:35.128Z,1.11
2023-01-26T14:03:37.862Z,1.11
2023-01-26T14:04:51.900Z,1.13
2023-01-26T14:06:15.118Z,1.08
2023-01-26T14:07:19.191Z,1.08
2023-01-26T14:08:22.791Z,1.04
2023-01-26T14:09:28.733Z,1.08
2023-01-26T14:10:31.129Z,1.06
2023-01-26T14:11:34.348Z,1.07
2023-01-26T14:12:47.210Z,1.08
2023-01-26T14:13:53.843Z,1.08
2023-01-26T14:15:01.063Z,1.09
2023-01-26T14:16:08.392Z,1.05
2023-01-26T14:17:30.831Z,1.05
2023-01-26T14:18:33.079Z,1.04
2023-01-26T14:19:40.636Z,0.97
2023-01-26T14:20:43.168Z,0.99
2023-01-26T14:21:52.428Z,0.98
2023-01-26T14:23:21.553Z,1.00
2023-01-26T14:24:41.569Z,1.04
2023-01-26T14:25:57.479Z,1.05
2023-01-26T14:27:00.224Z,1.07
2023-01-26T14:28:02.072Z,1.08
2023-01-26T14:29:10.570Z,1.09
2023-01-26T14:30:34.395Z,1.12
2023-01-26T14:31:37.096Z,1.08
2023-01-26T14:32:39.387Z,1.05
2023-01-26T14:33:41.856Z,1.00
2023-01-26T14:34:54.863Z,0.97
2023-01-26T14:36:03.034Z,0.95
2023-01-26T14:37:14.309Z,0.98
2023-01-26T14:38:18.249Z,0.62
2023-01-26T14:39:21.702Z,0.98
2023-01-26T14:40:25.019Z,0.98
2023-01-26T14:41:32.603Z,0.95
2023-01-26T14:42:34.885Z,0.98
2023-01-26T14:43:36.901Z,0.99
2023-01-26T14:44:38.719Z,0.98
2023-01-26T14:45:49.813Z,0.88
2023-01-26T14:47:09.358Z,0.95
2023-01-26T14:48:15.402Z,0.79
2023-01-26T14:49:25.612Z,0.95
2023-01-26T14:50:29.911Z,0.95
2023-01-26T14:51:32.532Z,0.98
2023-01-26T14:52:40.428Z,0.98
2023-01-26T14:53:53.147Z,0.98
2023-01-26T14:54:59.302Z,0.99
2023-01-26T14:56:01.568Z,1.00